Time;durP1;ratioP1;P1;durP2;ratioP2;P2;SDS_P1;SDS_P2;PMS_P1;PMS_P2;Temp;Humidity;BMP_temperature;BMP_pressure;BME280_temperature;BME280_humidity;BME280_pressure;Samples;Min_cycle;Max_cycle;Signal;HPM_P1;HPM_P2
2021/12/26 00:00:44;;;;;;;238.38;99.78;;;;;;;;;;6221255;28;20364;-67
2021/12/26 00:03:44;;;;;;;255.35;101.68;;;;;;;;;;6221562;28;20390;-67
2021/12/26 00:06:45;;;;;;;290.13;113.27;;;;;;;;;;6222001;28;20018;-68
2021/12/26 00:09:45;;;;;;;280.30;104.60;;;;;;;;;;6221081;28;20394;-67
2021/12/26 00:12:45;;;;;;;219.77;84.17;;;;;;;;;;6221410;28;20018;-67
2021/12/26 00:15:46;;;;;;;167.70;76.53;;;;;;;;;;6221013;28;20041;-67
2021/12/26 00:18:47;;;;;;;294.37;113.80;;;;;;;;;;6221378;28;20817;-67
2021/12/26 00:21:48;;;;;;;320.15;116.03;;;;;;;;;;6220719;28;20030;-67
2021/12/26 00:24:48;;;;;;;322.30;124.50;;;;;;;;;;6244894;28;20017;-69
2021/12/26 00:27:48;;;;;;;264.97;103.73;;;;;;;;;;6225456;28;20033;-67
2021/12/26 00:30:49;;;;;;;343.13;131.07;;;;;;;;;;6196047;28;20070;-67
2021/12/26 00:33:49;;;;;;;343.60;140.37;;;;;;;;;;6196580;28;20034;-67
2021/12/26 00:36:49;;;;;;;270.00;103.70;;;;;;;;;;6196365;28;20500;-67
2021/12/26 00:39:50;;;;;;;253.37;102.30;;;;;;;;;;6196552;28;20022;-67
2021/12/26 00:42:50;;;;;;;324.00;123.77;;;;;;;;;;6214372;28;20038;-67
2021/12/26 00:45:50;;;;;;;353.37;132.13;;;;;;;;;;6215704;28;20047;-67
2021/12/26 00:48:51;;;;;;;360.77;141.53;;;;;;;;;;6207915;28;20028;-67
2021/12/26 00:51:51;;;;;;;348.70;142.33;;;;;;;;;;6220255;28;20022;-67
2021/12/26 00:54:51;;;;;;;317.43;108.10;;;;;;;;;;6244537;28;20074;-67
2021/12/26 00:57:52;;;;;;;254.20;97.67;;;;;;;;;;6225683;28;20106;-67
2021/12/26 01:00:52;;;;;;;201.60;79.60;;;;;;;;;;6219328;28;20104;-67
2021/12/26 01:03:53;;;;;;;150.53;56.83;;;;;;;;;;6220200;28;20080;-67
2021/12/26 01:06:53;;;;;;;149.80;59.77;;;;;;;;;;6220114;28;20029;-67
2021/12/26 01:09:53;;;;;;;98.70;43.33;;;;;;;;;;6219752;28;20022;-67
2021/12/26 01:12:54;;;;;;;150.77;58.00;;;;;;;;;;6220067;28;20029;-67
2021/12/26 01:15:57;;;;;;;161.40;52.97;;;;;;;;;;6219701;28;20468;-67
2021/12/26 01:19:11;;;;;;;120.25;51.33;;;;;;;;;;6219680;28;20053;-67
2021/12/26 01:22:12;;;;;;;130.90;53.45;;;;;;;;;;6222736;28;20026;-67
2021/12/26 01:25:12;;;;;;;126.30;51.50;;;;;;;;;;6244106;28;20021;-67
2021/12/26 01:28:13;;;;;;;88.90;36.23;;;;;;;;;;6217703;28;20315;-67
2021/12/26 01:31:19;;;;;;;108.03;39.17;;;;;;;;;;6194862;28;20030;-68
2021/12/26 01:34:19;;;;;;;111.30;41.22;;;;;;;;;;6194804;28;20522;-67
2021/12/26 01:37:19;;;;;;;106.40;43.13;;;;;;;;;;6195034;28;20112;-67
2021/12/26 01:40:20;;;;;;;93.60;39.40;;;;;;;;;;6194845;28;20394;-67
2021/12/26 01:43:21;;;;;;;111.40;46.60;;;;;;;;;;6216246;28;20024;-67
2021/12/26 01:46:22;;;;;;;117.85;44.47;;;;;;;;;;6219506;28;20021;-67
2021/12/26 01:49:24;;;;;;;175.55;59.50;;;;;;;;;;6218119;28;20021;-67
2021/12/26 01:52:24;;;;;;;196.07;78.32;;;;;;;;;;6223786;28;20021;-67
2021/12/26 01:55:37;;;;;;;187.93;67.50;;;;;;;;;;6243484;28;20465;-67
2021/12/26 01:58:38;;;;;;;243.65;92.63;;;;;;;;;;6194753;28;20041;-67
2021/12/26 02:01:38;;;;;;;215.70;88.80;;;;;;;;;;6208142;28;20475;-67
2021/12/26 02:04:39;;;;;;;144.90;65.80;;;;;;;;;;6215921;28;20347;-67
2021/12/26 02:07:39;;;;;;;117.18;46.63;;;;;;;;;;6211481;28;20023;-67
2021/12/26 02:10:40;;;;;;;226.57;91.80;;;;;;;;;;6194308;28;20049;-67
2021/12/26 02:13:40;;;;;;;140.67;55.43;;;;;;;;;;6197058;28;20026;-67
2021/12/26 02:16:41;;;;;;;139.73;60.77;;;;;;;;;;6218590;28;20049;-68
2021/12/26 02:19:41;;;;;;;149.60;57.40;;;;;;;;;;6216826;28;20022;-67
2021/12/26 02:22:46;;;;;;;214.00;82.60;;;;;;;;;;6209105;28;20014;-67
2021/12/26 02:28:47;;;;;;;228.50;80.73;;;;;;;;;;6199891;28;20466;-67
2021/12/26 02:31:47;;;;;;;255.33;100.23;;;;;;;;;;6193879;28;20402;-67
2021/12/26 02:34:48;;;;;;;207.67;82.90;;;;;;;;;;6194266;28;20330;-67
2021/12/26 02:37:49;;;;;;;241.53;91.57;;;;;;;;;;6198186;28;20160;-67
2021/12/26 02:40:51;;;;;;;267.23;106.83;;;;;;;;;;6200431;28;20253;-67
2021/12/26 02:43:51;;;;;;;244.65;92.70;;;;;;;;;;6214367;28;20056;-67
2021/12/26 02:46:51;;;;;;;193.77;70.93;;;;;;;;;;6199339;28;20022;-67
2021/12/26 02:49:52;;;;;;;191.80;85.90;;;;;;;;;;6218906;28;20014;-67
2021/12/26 02:52:53;;;;;;;205.57;88.50;;;;;;;;;;6231829;28;20014;-67
2021/12/26 02:55:54;;;;;;;190.65;75.88;;;;;;;;;;6245473;28;20022;-67
2021/12/26 02:58:55;;;;;;;;;;;;;;;;;;6223661;28;20040;-67
2021/12/26 03:01:55;;;;;;;153.27;68.35;;;;;;;;;;6222041;28;19913;-67
2021/12/26 03:04:55;;;;;;;206.17;78.30;;;;;;;;;;6223084;28;20260;-69
2021/12/26 03:07:56;;;;;;;205.80;85.47;;;;;;;;;;6223305;28;20057;-67
2021/12/26 03:10:57;;;;;;;224.90;82.50;;;;;;;;;;6222843;28;20025;-67
2021/12/26 03:13:57;;;;;;;191.52;78.55;;;;;;;;;;6222918;28;20037;-67
2021/12/26 03:17:00;;;;;;;211.67;82.73;;;;;;;;;;6222800;28;20022;-67
2021/12/26 03:20:00;;;;;;;212.35;80.80;;;;;;;;;;6222191;28;20022;-67
2021/12/26 03:23:01;;;;;;;189.33;76.53;;;;;;;;;;6231793;28;20421;-67
2021/12/26 03:26:03;;;;;;;199.07;77.55;;;;;;;;;;6247000;28;20029;-67
2021/12/26 03:29:03;;;;;;;168.82;57.85;;;;;;;;;;6206843;28;20479;-67
2021/12/26 03:32:04;;;;;;;159.97;65.40;;;;;;;;;;6198396;28;20074;-67
2021/12/26 03:35:04;;;;;;;181.05;71.50;;;;;;;;;;6195859;28;20022;-67
2021/12/26 03:38:06;;;;;;;189.37;73.90;;;;;;;;;;6196220;28;20026;-67
2021/12/26 03:41:06;;;;;;;158.98;61.42;;;;;;;;;;6200234;28;20212;-67
2021/12/26 03:44:06;;;;;;;171.90;70.20;;;;;;;;;;6198248;28;20589;-67
2021/12/26 03:47:07;;;;;;;150.50;64.70;;;;;;;;;;6198861;28;20072;-67
2021/12/26 03:50:07;;;;;;;129.60;53.57;;;;;;;;;;6199649;28;20022;-67
2021/12/26 03:53:08;;;;;;;153.48;59.63;;;;;;;;;;6201375;28;20084;-67
2021/12/26 03:56:08;;;;;;;122.37;64.50;;;;;;;;;;6196368;28;20446;-67
2021/12/26 03:59:09;;;;;;;128.63;49.30;;;;;;;;;;6196221;28;20533;-67
2021/12/26 04:02:09;;;;;;;157.10;47.33;;;;;;;;;;6196882;28;20022;-67
2021/12/26 04:05:11;;;;;;;127.67;47.73;;;;;;;;;;6196908;28;20050;-67
2021/12/26 04:08:11;;;;;;;129.25;49.65;;;;;;;;;;6206631;28;20501;-67
2021/12/26 04:11:11;;;;;;;163.27;67.63;;;;;;;;;;6220459;28;20034;-67
2021/12/26 04:14:13;;;;;;;177.67;68.27;;;;;;;;;;6220621;28;20052;-67
2021/12/26 04:17:13;;;;;;;179.52;66.38;;;;;;;;;;6220394;28;20449;-67
2021/12/26 04:20:13;;;;;;;157.10;65.33;;;;;;;;;;6220224;28;20013;-67
2021/12/26 04:23:15;;;;;;;161.93;64.10;;;;;;;;;;6218428;28;20053;-67
2021/12/26 04:26:15;;;;;;;151.52;61.67;;;;;;;;;;6220135;28;20037;-67
2021/12/26 04:29:15;;;;;;;110.83;50.37;;;;;;;;;;6215753;28;20482;-67
2021/12/26 04:32:15;;;;;;;84.27;33.57;;;;;;;;;;6219020;28;20026;-67
2021/12/26 04:35:16;;;;;;;98.57;41.17;;;;;;;;;;6219203;28;20049;-67
2021/12/26 04:38:16;;;;;;;129.38;56.90;;;;;;;;;;6219367;28;20026;-67
2021/12/26 04:41:17;;;;;;;167.43;59.00;;;;;;;;;;6218752;28;20520;-67
2021/12/26 04:44:17;;;;;;;94.43;41.20;;;;;;;;;;6219025;28;20394;-67
2021/12/26 04:47:18;;;;;;;24.20;10.73;;;;;;;;;;6219342;28;20091;-67
2021/12/26 04:50:22;;;;;;;55.93;25.23;;;;;;;;;;6217273;28;20457;-67
2021/12/26 04:53:22;;;;;;;122.45;48.95;;;;;;;;;;6214154;28;20026;-67
2021/12/26 04:56:22;;;;;;;130.47;54.87;;;;;;;;;;6207847;28;20462;-67
2021/12/26 04:59:23;;;;;;;153.33;61.77;;;;;;;;;;6212209;28;20020;-67
2021/12/26 05:02:24;;;;;;;142.93;57.27;;;;;;;;;;6213789;28;20497;-67
2021/12/26 05:05:26;;;;;;;137.80;53.33;;;;;;;;;;6208867;28;20022;-67
2021/12/26 05:08:27;;;;;;;141.52;49.15;;;;;;;;;;6209726;28;20033;-67
2021/12/26 05:11:28;;;;;;;95.40;43.57;;;;;;;;;;6215838;28;20025;-67
2021/12/26 05:14:28;;;;;;;97.40;37.83;;;;;;;;;;6219468;28;20046;-67
2021/12/26 05:17:30;;;;;;;94.07;31.37;;;;;;;;;;6220050;28;20044;-67
2021/12/26 05:20:30;;;;;;;;;;;;;;;;;;6218344;28;20033;-68
2021/12/26 05:23:30;;;;;;;54.90;23.08;;;;;;;;;;6218225;28;19925;-67
2021/12/26 05:26:31;;;;;;;44.67;19.87;;;;;;;;;;6217559;28;20052;-68
2021/12/26 05:29:31;;;;;;;117.60;43.30;;;;;;;;;;6215888;28;20481;-67
2021/12/26 05:32:32;;;;;;;133.10;53.10;;;;;;;;;;6217835;28;20027;-67
2021/12/26 05:35:32;;;;;;;117.43;42.90;;;;;;;;;;6214079;28;20057;-67
2021/12/26 05:38:32;;;;;;;118.43;49.47;;;;;;;;;;6217446;28;20018;-67
2021/12/26 05:41:33;;;;;;;98.27;45.63;;;;;;;;;;6217125;28;20061;-68
2021/12/26 05:44:33;;;;;;;101.40;43.77;;;;;;;;;;6216409;28;20032;-67
2021/12/26 05:47:33;;;;;;;129.80;52.10;;;;;;;;;;6214694;28;20100;-67
2021/12/26 05:50:33;;;;;;;109.00;44.40;;;;;;;;;;6216635;28;20030;-67
2021/12/26 05:53:34;;;;;;;64.83;30.97;;;;;;;;;;6218283;28;20515;-67
2021/12/26 05:56:34;;;;;;;119.47;41.20;;;;;;;;;;6218147;28;20026;-67
2021/12/26 05:59:34;;;;;;;77.50;25.63;;;;;;;;;;6218895;28;20253;-67
2021/12/26 06:02:35;;;;;;;93.03;26.37;;;;;;;;;;6218930;28;20097;-67
2021/12/26 06:05:35;;;;;;;83.83;34.00;;;;;;;;;;6218824;28;20445;-67
2021/12/26 06:08:35;;;;;;;164.80;57.37;;;;;;;;;;6219188;28;20109;-67
2021/12/26 06:11:36;;;;;;;184.53;69.97;;;;;;;;;;6218517;28;20396;-67
2021/12/26 06:14:36;;;;;;;213.23;70.63;;;;;;;;;;6218824;28;20065;-67
2021/12/26 06:17:36;;;;;;;146.80;53.90;;;;;;;;;;6219049;28;20014;-67
2021/12/26 06:20:37;;;;;;;159.10;64.80;;;;;;;;;;6219323;28;20564;-67
2021/12/26 06:23:40;;;;;;;145.53;55.97;;;;;;;;;;6233355;28;20414;-67
2021/12/26 06:26:43;;;;;;;162.82;63.83;;;;;;;;;;6242044;28;20072;-67
2021/12/26 06:29:43;;;;;;;81.82;31.50;;;;;;;;;;6194523;28;20029;-67
2021/12/26 06:32:44;;;;;;;186.93;69.70;;;;;;;;;;6194255;28;20042;-67
2021/12/26 06:35:44;;;;;;;172.07;60.00;;;;;;;;;;6194518;28;20077;-68
2021/12/26 06:38:45;;;;;;;115.53;47.67;;;;;;;;;;6194199;28;20065;-67
2021/12/26 06:41:45;;;;;;;91.20;41.92;;;;;;;;;;6202656;28;20053;-67
2021/12/26 06:44:45;;;;;;;124.30;47.80;;;;;;;;;;6211262;28;20463;-67
2021/12/26 06:47:50;;;;;;;88.97;37.83;;;;;;;;;;6206163;28;20317;-67
2021/12/26 06:50:50;;;;;;;73.97;35.15;;;;;;;;;;6214722;28;20025;-67
2021/12/26 06:53:51;;;;;;;95.10;39.30;;;;;;;;;;6214831;28;20117;-67
2021/12/26 06:56:51;;;;;;;111.20;40.27;;;;;;;;;;6211577;28;20508;-67
2021/12/26 06:59:51;;;;;;;109.10;50.13;;;;;;;;;;6214971;28;20014;-67
2021/12/26 07:02:52;;;;;;;110.10;54.47;;;;;;;;;;6216860;28;20473;-67
2021/12/26 07:05:52;;;;;;;118.80;47.83;;;;;;;;;;6216663;28;20026;-68
2021/12/26 07:08:52;;;;;;;101.93;42.07;;;;;;;;;;6215314;28;20067;-67
2021/12/26 07:11:53;;;;;;;112.17;44.90;;;;;;;;;;6215999;28;20072;-67
2021/12/26 07:14:53;;;;;;;100.97;39.53;;;;;;;;;;6215092;28;20338;-67
2021/12/26 07:17:53;;;;;;;80.43;34.40;;;;;;;;;;6214662;28;20021;-67
2021/12/26 07:20:53;;;;;;;93.50;42.90;;;;;;;;;;6215474;28;20433;-67
2021/12/26 07:23:54;;;;;;;119.00;51.83;;;;;;;;;;6237098;28;20032;-67
2021/12/26 07:26:55;;;;;;;124.68;52.72;;;;;;;;;;6218340;28;20106;-67
2021/12/26 07:29:58;;;;;;;128.53;51.23;;;;;;;;;;6219338;28;20022;-67
2021/12/26 07:32:58;;;;;;;107.22;50.50;;;;;;;;;;6219365;28;20599;-67
2021/12/26 07:35:58;;;;;;;111.10;49.30;;;;;;;;;;6215711;28;20026;-67
2021/12/26 07:38:59;;;;;;;107.77;46.60;;;;;;;;;;6202841;28;20387;-67
2021/12/26 07:41:59;;;;;;;87.43;41.60;;;;;;;;;;6206744;28;20391;-67
2021/12/26 07:44:59;;;;;;;102.60;38.53;;;;;;;;;;6220483;28;20117;-67
2021/12/26 07:48:00;;;;;;;114.33;44.67;;;;;;;;;;6217636;28;20483;-67
2021/12/26 07:51:01;;;;;;;107.63;42.20;;;;;;;;;;6219499;28;20053;-67
2021/12/26 07:54:02;;;;;;;322.45;123.68;;;;;;;;;;6238526;28;20395;-67
2021/12/26 07:57:02;;;;;;;321.07;132.87;;;;;;;;;;6233346;28;20053;-67
2021/12/26 08:00:04;;;;;;;134.80;54.43;;;;;;;;;;6220071;28;20014;-67
2021/12/26 08:03:04;;;;;;;;;;;;;;;;;;6221076;28;20029;-67
2021/12/26 08:06:07;;;;;;;135.25;47.83;;;;;;;;;;6219866;28;19913;-67
2021/12/26 08:09:07;;;;;;;213.88;71.00;;;;;;;;;;6213365;28;20022;-67
2021/12/26 08:12:08;;;;;;;551.87;207.97;;;;;;;;;;6218741;28;20119;-67
2021/12/26 08:15:08;;;;;;;209.10;88.47;;;;;;;;;;6219489;28;20275;-67
2021/12/26 08:18:09;;;;;;;248.23;94.97;;;;;;;;;;6220576;28;20032;-67
2021/12/26 08:21:09;;;;;;;196.00;69.10;;;;;;;;;;6218398;28;20025;-67
2021/12/26 08:24:10;;;;;;;151.13;62.30;;;;;;;;;;6224535;28;20022;-67
2021/12/26 08:27:10;;;;;;;137.90;56.70;;;;;;;;;;6217613;28;20506;-67
2021/12/26 08:30:10;;;;;;;142.97;65.63;;;;;;;;;;6219448;28;20045;-68
2021/12/26 08:33:11;;;;;;;133.83;58.53;;;;;;;;;;6209456;28;20026;-67
2021/12/26 08:36:11;;;;;;;134.57;52.93;;;;;;;;;;6194999;28;20114;-67
2021/12/26 08:39:11;;;;;;;128.10;50.63;;;;;;;;;;6200149;28;20453;-67
2021/12/26 08:42:13;;;;;;;91.50;38.03;;;;;;;;;;6218466;28;20378;-67
2021/12/26 08:45:13;;;;;;;70.95;27.75;;;;;;;;;;6219873;28;20030;-67
2021/12/26 08:48:14;;;;;;;28.83;17.90;;;;;;;;;;6213331;28;20027;-68
2021/12/26 08:51:14;;;;;;;127.93;44.97;;;;;;;;;;6195414;28;20033;-67
2021/12/26 08:54:15;;;;;;;253.47;100.43;;;;;;;;;;6199126;28;20021;-67
2021/12/26 08:57:15;;;;;;;230.00;97.77;;;;;;;;;;6198925;28;20030;-67
2021/12/26 09:00:16;;;;;;;283.43;121.13;;;;;;;;;;6193933;28;20137;-67
2021/12/26 09:03:16;;;;;;;288.70;121.90;;;;;;;;;;6192956;28;20022;-67
2021/12/26 09:06:16;;;;;;;256.63;112.87;;;;;;;;;;6193957;28;20434;-67
2021/12/26 09:09:16;;;;;;;170.70;77.10;;;;;;;;;;6194073;28;20474;-67
2021/12/26 09:12:17;;;;;;;335.43;132.50;;;;;;;;;;6200468;28;20037;-67
2021/12/26 09:15:17;;;;;;;260.37;111.00;;;;;;;;;;6195604;28;20068;-67
2021/12/26 09:18:17;;;;;;;255.17;102.83;;;;;;;;;;6197415;28;20021;-67
2021/12/26 09:21:18;;;;;;;326.52;133.73;;;;;;;;;;6196456;28;20065;-67
2021/12/26 09:24:18;;;;;;;169.43;69.83;;;;;;;;;;6195434;28;20459;-67
2021/12/26 09:27:18;;;;;;;99.75;45.75;;;;;;;;;;6195111;28;20101;-68
2021/12/26 09:30:19;;;;;;;42.63;19.40;;;;;;;;;;6192821;28;20014;-65
2021/12/26 09:33:22;;;;;;;31.20;15.10;;;;;;;;;;6192561;28;20039;-65
2021/12/26 09:36:22;;;;;;;45.40;16.38;;;;;;;;;;6195648;28;20033;-65
2021/12/26 09:39:23;;;;;;;42.72;16.60;;;;;;;;;;6194719;28;20068;-65
2021/12/26 09:42:24;;;;;;;54.60;21.75;;;;;;;;;;6217092;28;20438;-66
2021/12/26 09:45:25;;;;;;;40.10;17.90;;;;;;;;;;6204937;28;20026;-67
2021/12/26 09:48:25;;;;;;;49.92;20.02;;;;;;;;;;6204644;28;20060;-66
2021/12/26 09:51:26;;;;;;;49.53;22.10;;;;;;;;;;6218223;28;20482;-67
2021/12/26 09:54:26;;;;;;;48.13;22.30;;;;;;;;;;6224097;28;20453;-66
2021/12/26 09:57:28;;;;;;;47.90;21.50;;;;;;;;;;6214563;28;20065;-66
2021/12/26 10:00:39;;;;;;;58.83;23.85;;;;;;;;;;6218818;28;20481;-66
2021/12/26 10:03:40;;;;;;;53.20;25.08;;;;;;;;;;6219075;28;20056;-66
2021/12/26 10:06:40;;;;;;;56.92;25.35;;;;;;;;;;6207183;28;20034;-67
2021/12/26 10:09:46;;;;;;;94.40;39.08;;;;;;;;;;6195976;28;20027;-67
2021/12/26 10:12:46;;;;;;;55.67;24.35;;;;;;;;;;6210880;28;20389;-67
2021/12/26 10:15:47;;;;;;;62.20;26.40;;;;;;;;;;6214575;28;20073;-67
2021/12/26 10:18:48;;;;;;;56.88;24.75;;;;;;;;;;6217047;28;20014;-67
2021/12/26 10:21:49;;;;;;;60.90;26.02;;;;;;;;;;6215135;28;20014;-67
2021/12/26 10:24:50;;;;;;;73.70;28.52;;;;;;;;;;6205102;28;20652;-67
2021/12/26 10:27:50;;;;;;;60.47;26.08;;;;;;;;;;6193601;28;20026;-67
2021/12/26 10:30:50;;;;;;;51.38;21.90;;;;;;;;;;6193956;28;20101;-67
2021/12/26 10:33:50;;;;;;;51.75;24.55;;;;;;;;;;6194190;28;20022;-67
2021/12/26 10:36:52;;;;;;;59.10;22.23;;;;;;;;;;6194056;28;20023;-67
2021/12/26 10:39:55;;;;;;;58.60;24.70;;;;;;;;;;6194308;28;20552;-67
2021/12/26 10:42:56;;;;;;;57.25;24.98;;;;;;;;;;6211982;28;20021;-68
2021/12/26 10:46:12;;;;;;;58.58;25.08;;;;;;;;;;6218331;28;20029;-67
2021/12/26 10:49:21;;;;;;;58.03;25.63;;;;;;;;;;6203134;28;20081;-67
2021/12/26 10:52:24;;;;;;;58.40;23.60;;;;;;;;;;6202816;28;20033;-67
2021/12/26 10:55:35;;;;;;;56.80;23.27;;;;;;;;;;6242879;28;20017;-68
2021/12/26 10:58:36;;;;;;;57.67;24.95;;;;;;;;;;6199516;28;20369;-67
2021/12/26 11:01:42;;;;;;;62.22;25.60;;;;;;;;;;6218863;28;21222;-67
2021/12/26 11:04:52;;;;;;;63.03;25.58;;;;;;;;;;6218097;28;20497;-68
2021/12/26 11:07:55;;;;;;;53.55;24.10;;;;;;;;;;6213240;28;20607;-68
2021/12/26 11:10:56;;;;;;;54.42;22.73;;;;;;;;;;6221042;28;20322;-68
2021/12/26 11:14:04;;;;;;;45.53;20.83;;;;;;;;;;6198777;28;20033;-68
2021/12/26 11:17:04;;;;;;;54.42;20.40;;;;;;;;;;6201522;28;20022;-68
2021/12/26 11:20:05;;;;;;;55.38;21.77;;;;;;;;;;6195435;28;20528;-68
2021/12/26 11:23:10;;;;;;;45.97;20.40;;;;;;;;;;6198409;28;20031;-68
2021/12/26 11:26:11;;;;;;;45.25;20.80;;;;;;;;;;6209368;28;20407;-68
2021/12/26 11:29:12;;;;;;;51.55;20.88;;;;;;;;;;6220160;28;20537;-68
2021/12/26 11:32:12;;;;;;;45.10;19.60;;;;;;;;;;6221316;28;20040;-68
2021/12/26 11:35:13;;;;;;;35.25;17.55;;;;;;;;;;6219062;28;20076;-68
2021/12/26 11:38:18;;;;;;;46.25;18.75;;;;;;;;;;6216682;28;20120;-68
2021/12/26 11:41:39;;;;;;;50.90;19.42;;;;;;;;;;6212449;28;20022;-68
2021/12/26 11:45:00;;;;;;;60.50;23.50;;;;;;;;;;6212930;28;20038;-68
2021/12/26 11:48:23;;;;;;;52.40;20.85;;;;;;;;;;6198241;28;20036;-68
2021/12/26 11:51:24;;;;;;;50.08;19.25;;;;;;;;;;6216852;28;20064;-68
2021/12/26 11:54:39;;;;;;;43.22;18.30;;;;;;;;;;6240629;28;20018;-68
2021/12/26 11:57:52;;;;;;;39.97;18.10;;;;;;;;;;6199713;28;20030;-68
2021/12/26 12:00:53;;;;;;;38.28;14.52;;;;;;;;;;6194032;28;20368;-68
2021/12/26 12:04:09;;;;;;;38.72;14.38;;;;;;;;;;6192730;28;20023;-67
2021/12/26 12:07:10;;;;;;;27.33;11.30;;;;;;;;;;6205809;28;20037;-67
2021/12/26 12:10:29;;;;;;;36.50;12.30;;;;;;;;;;6219677;28;20444;-67
2021/12/26 12:13:38;;;;;;;23.65;9.05;;;;;;;;;;6203252;28;20069;-67
2021/12/26 12:16:38;;;;;;;22.77;9.15;;;;;;;;;;6204228;28;20053;-67
2021/12/26 12:19:58;;;;;;;22.52;9.25;;;;;;;;;;6217180;28;20390;-67
2021/12/26 12:23:07;;;;;;;21.10;7.75;;;;;;;;;;6227427;28;20026;-67
2021/12/26 12:26:07;;;;;;;21.35;8.10;;;;;;;;;;6202378;28;20033;-67
2021/12/26 12:29:08;;;;;;;20.92;8.00;;;;;;;;;;6193356;28;20226;-67
2021/12/26 12:32:08;;;;;;;21.77;8.55;;;;;;;;;;6197440;28;20051;-67
2021/12/26 12:35:16;;;;;;;25.48;7.40;;;;;;;;;;6190825;28;20138;-67
2021/12/26 12:38:20;;;;;;;20.88;8.88;;;;;;;;;;6191542;28;20471;-67
2021/12/26 12:41:30;;;;;;;19.23;8.13;;;;;;;;;;6192095;28;20170;-67
2021/12/26 12:44:34;;;;;;;17.80;8.10;;;;;;;;;;6192389;28;20030;-67
2021/12/26 12:47:35;;;;;;;19.33;8.18;;;;;;;;;;6192054;28;20475;-67
2021/12/26 12:50:35;;;;;;;18.00;7.72;;;;;;;;;;6191759;28;20026;-67
2021/12/26 12:53:43;;;;;;;18.67;7.75;;;;;;;;;;6197646;28;20943;-67
2021/12/26 12:56:44;;;;;;;23.23;8.27;;;;;;;;;;6204387;28;20108;-67
2021/12/26 12:59:45;;;;;;;23.23;9.82;;;;;;;;;;6192764;28;20026;-67
2021/12/26 13:02:45;;;;;;;23.48;8.60;;;;;;;;;;6204616;28;20025;-67
2021/12/26 13:05:47;;;;;;;21.60;8.13;;;;;;;;;;6205657;28;20022;-67
2021/12/26 13:08:47;;;;;;;28.35;10.57;;;;;;;;;;6204228;28;20030;-67
2021/12/26 13:11:51;;;;;;;29.48;10.77;;;;;;;;;;6206027;28;20100;-67
2021/12/26 13:14:51;;;;;;;29.75;10.45;;;;;;;;;;6196289;28;20050;-67
2021/12/26 13:17:51;;;;;;;20.20;9.43;;;;;;;;;;6209628;28;20406;-67
2021/12/26 13:20:53;;;;;;;26.63;9.80;;;;;;;;;;6215961;28;20022;-67
2021/12/26 13:23:53;;;;;;;25.67;10.10;;;;;;;;;;6227784;28;20009;-67
2021/12/26 13:26:53;;;;;;;31.90;11.25;;;;;;;;;;6210493;28;20486;-67
2021/12/26 13:29:54;;;;;;;25.15;11.52;;;;;;;;;;6219008;28;20152;-67
2021/12/26 13:32:54;;;;;;;24.75;9.88;;;;;;;;;;6208737;28;20426;-67
2021/12/26 13:35:54;;;;;;;28.40;10.73;;;;;;;;;;6206456;28;20049;-67
2021/12/26 13:38:55;;;;;;;26.48;9.52;;;;;;;;;;6203931;28;20096;-67
2021/12/26 13:41:56;;;;;;;26.33;9.52;;;;;;;;;;6210537;28;20451;-67
2021/12/26 13:44:56;;;;;;;21.17;8.52;;;;;;;;;;6195366;28;20026;-67
2021/12/26 13:47:57;;;;;;;26.70;10.20;;;;;;;;;;6199516;28;20305;-67
2021/12/26 13:50:58;;;;;;;22.35;8.82;;;;;;;;;;6199554;28;20072;-67
2021/12/26 13:54:06;;;;;;;17.63;7.70;;;;;;;;;;6228260;28;20371;-67
2021/12/26 13:57:10;;;;;;;23.38;8.77;;;;;;;;;;6230854;28;20050;-67
2021/12/26 14:00:10;;;;;;;17.60;7.03;;;;;;;;;;6217211;28;20049;-67
2021/12/26 14:03:10;;;;;;;25.10;8.13;;;;;;;;;;6215896;28;20502;-67
2021/12/26 14:06:11;;;;;;;19.33;8.88;;;;;;;;;;6216533;28;20100;-67
2021/12/26 14:09:11;;;;;;;20.50;7.07;;;;;;;;;;6216043;28;20033;-67
2021/12/26 14:12:25;;;;;;;22.00;9.32;;;;;;;;;;6216030;28;20033;-67
2021/12/26 14:15:31;;;;;;;27.55;9.55;;;;;;;;;;6211227;28;20506;-67
2021/12/26 14:18:34;;;;;;;23.30;8.65;;;;;;;;;;6210288;28;20421;-67
2021/12/26 14:21:47;;;;;;;18.08;7.57;;;;;;;;;;6202554;28;20021;-67
2021/12/26 14:24:47;;;;;;;19.65;7.57;;;;;;;;;;6225149;28;20053;-67
2021/12/26 14:27:47;;;;;;;20.58;8.43;;;;;;;;;;6216677;28;20010;-68
2021/12/26 14:30:48;;;;;;;23.77;8.35;;;;;;;;;;6218839;28;20093;-67
2021/12/26 14:33:52;;;;;;;25.67;9.35;;;;;;;;;;6223198;28;20018;-67
2021/12/26 14:36:56;;;;;;;24.65;9.13;;;;;;;;;;6223624;28;20044;-67
2021/12/26 14:40:07;;;;;;;19.95;7.65;;;;;;;;;;6223917;28;20429;-67
2021/12/26 14:43:08;;;;;;;23.73;9.82;;;;;;;;;;6222705;28;20558;-67
2021/12/26 14:46:10;;;;;;;22.02;8.88;;;;;;;;;;6223510;28;20025;-67
2021/12/26 14:49:11;;;;;;;23.88;11.60;;;;;;;;;;6223063;28;20117;-67
2021/12/26 14:52:13;;;;;;;25.60;10.17;;;;;;;;;;6225468;28;20397;-67
2021/12/26 14:55:15;;;;;;;20.75;9.23;;;;;;;;;;6247805;28;20675;-67
2021/12/26 14:58:18;;;;;;;26.20;10.38;;;;;;;;;;6225419;28;20018;-67
2021/12/26 15:01:36;;;;;;;32.30;13.43;;;;;;;;;;6223695;28;20025;-67
2021/12/26 15:04:38;;;;;;;29.65;13.13;;;;;;;;;;6222884;28;20148;-67
2021/12/26 15:07:44;;;;;;;30.02;11.95;;;;;;;;;;6222755;28;20022;-67
2021/12/26 15:10:47;;;;;;;41.10;13.88;;;;;;;;;;6223245;28;20026;-67
2021/12/26 15:13:48;;;;;;;43.90;14.75;;;;;;;;;;6222506;28;20022;-67
2021/12/26 15:16:48;;;;;;;51.13;17.87;;;;;;;;;;6221751;28;20430;-67
2021/12/26 15:19:48;;;;;;;93.67;49.13;;;;;;;;;;6221797;28;20014;-67
2021/12/26 15:22:55;;;;;;;334.33;238.20;;;;;;;;;;6217689;28;20017;-67
2021/12/26 15:25:55;;;;;;;77.80;34.85;;;;;;;;;;6221813;28;20022;-67
2021/12/26 15:28:59;;;;;;;75.63;35.97;;;;;;;;;;6220557;28;20022;-67
2021/12/26 15:32:10;;;;;;;63.88;27.98;;;;;;;;;;6203693;28;20565;-67
2021/12/26 15:35:11;;;;;;;67.30;28.33;;;;;;;;;;6197133;28;20049;-67
2021/12/26 15:38:11;;;;;;;70.33;27.53;;;;;;;;;;6202827;28;20466;-67
2021/12/26 15:41:11;;;;;;;47.00;20.97;;;;;;;;;;6222050;28;20018;-67
2021/12/26 15:44:15;;;;;;;52.80;20.58;;;;;;;;;;6209709;28;20022;-67
2021/12/26 15:47:19;;;;;;;69.70;24.10;;;;;;;;;;6197312;28;20015;-67
2021/12/26 15:50:19;;;;;;;56.33;22.55;;;;;;;;;;6199836;28;20398;-67
2021/12/26 15:53:20;;;;;;;62.03;21.27;;;;;;;;;;6201712;28;20026;-67
2021/12/26 15:56:20;;;;;;;65.43;23.90;;;;;;;;;;6203417;28;20421;-67
2021/12/26 15:59:20;;;;;;;55.20;21.47;;;;;;;;;;6222037;28;20014;-68
2021/12/26 16:02:21;;;;;;;63.47;25.47;;;;;;;;;;6221548;28;20498;-67
2021/12/26 16:05:22;;;;;;;60.97;24.02;;;;;;;;;;6221675;28;20108;-67
2021/12/26 16:08:22;;;;;;;66.30;28.87;;;;;;;;;;6221936;28;20018;-66
2021/12/26 16:11:22;;;;;;;87.67;32.40;;;;;;;;;;6221238;28;20101;-66
2021/12/26 16:14:23;;;;;;;77.67;32.57;;;;;;;;;;6221066;28;20414;-67
2021/12/26 16:17:23;;;;;;;85.13;30.93;;;;;;;;;;6220923;28;20105;-66
2021/12/26 16:20:24;;;;;;;77.80;31.33;;;;;;;;;;6221547;28;20029;-66
2021/12/26 16:23:26;;;;;;;70.13;28.07;;;;;;;;;;6231036;28;20017;-66
2021/12/26 16:26:27;;;;;;;71.10;30.30;;;;;;;;;;6211316;28;20041;-66
2021/12/26 16:29:27;;;;;;;69.47;29.47;;;;;;;;;;6203246;28;20486;-66
2021/12/26 16:32:27;;;;;;;78.70;29.03;;;;;;;;;;6194242;28;20022;-66
2021/12/26 16:35:28;;;;;;;78.67;33.30;;;;;;;;;;6200320;28;20471;-67
2021/12/26 16:38:28;;;;;;;85.57;35.07;;;;;;;;;;6200603;28;20027;-67
2021/12/26 16:41:29;;;;;;;76.83;33.97;;;;;;;;;;6203478;28;20033;-67
2021/12/26 16:44:29;;;;;;;72.67;29.43;;;;;;;;;;6220813;28;20538;-67
2021/12/26 16:47:29;;;;;;;68.93;27.47;;;;;;;;;;6219034;28;20028;-67
2021/12/26 16:50:33;;;;;;;74.87;29.43;;;;;;;;;;6196154;28;20034;-67
2021/12/26 16:53:35;;;;;;;68.65;26.63;;;;;;;;;;6209061;28;20041;-67
2021/12/26 16:56:35;;;;;;;;;;;;;;;;;;6219774;28;20067;-67
2021/12/26 16:59:35;;;;;;;39.63;17.48;;;;;;;;;;6220539;28;20328;-67
2021/12/26 17:02:36;;;;;;;68.03;27.00;;;;;;;;;;6219132;28;20296;-67
2021/12/26 17:05:37;;;;;;;62.97;25.37;;;;;;;;;;6211661;28;20030;-67
2021/12/26 17:08:37;;;;;;;70.90;26.85;;;;;;;;;;6218157;28;20478;-67
2021/12/26 17:11:38;;;;;;;72.67;27.23;;;;;;;;;;6213982;28;20054;-67
2021/12/26 17:14:38;;;;;;;84.33;30.73;;;;;;;;;;6206379;28;20046;-67
2021/12/26 17:17:39;;;;;;;75.77;29.93;;;;;;;;;;6209392;28;20103;-67
2021/12/26 17:20:39;;;;;;;78.37;31.00;;;;;;;;;;6213845;28;20500;-67
2021/12/26 17:23:41;;;;;;;76.30;31.50;;;;;;;;;;6209547;28;20030;-67
2021/12/26 17:26:41;;;;;;;68.82;30.98;;;;;;;;;;6218293;28;20029;-67
2021/12/26 17:29:42;;;;;;;76.97;29.67;;;;;;;;;;6217735;28;20080;-67
2021/12/26 17:32:43;;;;;;;62.10;28.73;;;;;;;;;;6219054;28;20512;-67
2021/12/26 17:35:44;;;;;;;82.87;32.40;;;;;;;;;;6220332;28;20022;-67